Terminal Aerodrome Forecast
Issued by NWS Sioux Falls, SD

Home | Current Version | Previous Version | Graphics & Text | Print | Product List | Glossary On
Versions: 1 2 3 4 5 6 7 8 9 10 11 12 13 14 15
000
FTUS43 KFSD 300540
TAFFSD
TAF
KFSD 300540Z 3006/3106 34006KT P6SM SCT035 BKN150
     FM300900 34008KT P6SM OVC015
      TEMPO 3010/3013 4SM BR
     FM301600 35004KT P6SM BKN022
     FM301800 VRB04KT P6SM SCT030
     FM310000 14008KT P6SM SCT100=

USA.gov is the U.S. government's official web portal to all federal, state and local government web resources and services.